Time;durP1;ratioP1;P1;durP2;ratioP2;P2;SDS_P1;SDS_P2;PMS_P1;PMS_P2;Temp;Humidity;BMP_temperature;BMP_pressure;BME280_temperature;BME280_humidity;BME280_pressure;Samples;Min_cycle;Max_cycle;Signal;HPM_P1;HPM_P2
2023/01/29 00:02:04;;;;;;;5.93;5.33;;;0.30;99.90;;;;;;5017632;28;20193;-73
2023/01/29 00:04:30;;;;;;;6.17;5.17;;;0.30;99.90;;;;;;5009668;28;20201;-73
2023/01/29 00:06:56;;;;;;;5.93;5.43;;;0.20;99.90;;;;;;5019219;28;20181;-73
2023/01/29 00:09:21;;;;;;;6.00;5.40;;;0.20;99.90;;;;;;5016033;28;20288;-73
2023/01/29 00:11:47;;;;;;;5.97;5.37;;;0.10;99.90;;;;;;5021131;28;20200;-74
2023/01/29 00:14:13;;;;;;;5.45;4.95;;;0.10;99.90;;;;;;5017683;28;23119;-74
2023/01/29 00:16:38;;;;;;;5.77;5.17;;;0.10;99.90;;;;;;5024125;28;20184;-74
2023/01/29 00:19:04;;;;;;;5.13;4.73;;;0.10;99.90;;;;;;5023060;28;20275;-74
2023/01/29 00:21:31;;;;;;;5.47;4.97;;;0.10;99.90;;;;;;5019098;28;20191;-74
2023/01/29 00:23:57;;;;;;;4.57;4.27;;;0.00;99.90;;;;;;5020524;28;20685;-73
2023/01/29 00:26:22;;;;;;;5.03;4.73;;;0.10;99.90;;;;;;5026086;28;20172;-73
2023/01/29 00:28:48;;;;;;;5.85;5.15;;;0.30;99.90;;;;;;5017858;28;20173;-74
2023/01/29 00:31:16;;;;;;;5.37;4.87;;;0.10;99.90;;;;;;5021445;28;20231;-74
2023/01/29 00:33:42;;;;;;;6.20;5.20;;;0.10;99.90;;;;;;5023034;28;20272;-74
2023/01/29 00:36:10;;;;;;;5.53;5.03;;;0.10;99.90;;;;;;5022169;28;20640;-74
2023/01/29 00:38:37;;;;;;;5.73;5.23;;;0.10;99.90;;;;;;5014455;28;20188;-74
2023/01/29 00:46:42;;;;;;;7.23;5.57;;;0.10;99.90;;;;;;5019902;28;20192;-73
2023/01/29 00:49:08;;;;;;;5.87;5.37;;;0.10;99.90;;;;;;5017989;28;20189;-73
2023/01/29 00:51:35;;;;;;;5.97;5.50;;;0.00;99.90;;;;;;5020700;28;20640;-73
2023/01/29 00:54:01;;;;;;;6.03;5.53;;;0.10;99.90;;;;;;5029280;28;20267;-73
2023/01/29 00:56:28;;;;;;;5.80;5.30;;;0.20;99.90;;;;;;5018951;28;20189;-73
2023/01/29 00:58:54;;;;;;;6.10;5.60;;;0.30;99.90;;;;;;5030787;28;20188;-73
2023/01/29 01:03:04;;;;;;;6.00;5.50;;;0.30;99.90;;;;;;5020036;28;20610;-73
2023/01/29 01:04:07;;;;;;;6.63;6.03;;;0.30;99.90;;;;;;5016192;28;20723;-73
2023/01/29 01:06:33;;;;;;;5.93;5.40;;;0.40;99.90;;;;;;5022159;28;20192;-73
2023/01/29 01:11:42;;;;;;;5.60;5.10;;;0.30;99.90;;;;;;5011343;28;20892;-74
2023/01/29 01:14:08;;;;;;;7.07;5.80;;;0.20;99.90;;;;;;5016087;28;20275;-74
2023/01/29 01:16:34;;;;;;;6.68;6.07;;;0.10;99.90;;;;;;5024473;28;20183;-73
2023/01/29 01:18:59;;;;;;;6.13;5.63;;;0.10;99.90;;;;;;5016332;28;20221;-73
2023/01/29 01:21:25;;;;;;;6.00;5.40;;;0.00;99.90;;;;;;5014381;28;20243;-73
2023/01/29 01:23:50;;;;;;;6.30;5.65;;;0.10;99.90;;;;;;5021354;28;20311;-73
2023/01/29 01:26:17;;;;;;;6.33;5.47;;;0.10;99.90;;;;;;5020438;28;20176;-73
2023/01/29 01:28:43;;;;;;;6.30;5.70;;;0.20;99.90;;;;;;5014200;28;20192;-74
2023/01/29 01:31:12;;;;;;;6.10;5.50;;;0.20;99.90;;;;;;5016344;28;20246;-73
2023/01/29 01:33:38;;;;;;;6.50;5.83;;;0.30;99.90;;;;;;5020669;28;20208;-72
2023/01/29 01:36:08;;;;;;;6.47;5.87;;;0.20;99.90;;;;;;5018114;28;20605;-73
2023/01/29 01:38:33;;;;;;;5.83;5.40;;;0.20;99.90;;;;;;5017608;28;20267;-73
2023/01/29 01:40:59;;;;;;;6.13;5.33;;;0.10;99.90;;;;;;5014943;28;20208;-72
2023/01/29 01:43:24;;;;;;;6.00;5.50;;;0.10;99.90;;;;;;5019683;28;20273;-73
2023/01/29 01:45:50;;;;;;;6.17;5.57;;;0.10;99.90;;;;;;5023825;28;20203;-73
2023/01/29 01:48:23;;;;;;;6.40;5.90;;;0.00;99.90;;;;;;5014783;28;20192;-73
2023/01/29 01:50:55;;;;;;;6.13;5.50;;;0.00;99.90;;;;;;5020173;28;20185;-73
2023/01/29 01:53:43;;;;;;;5.97;5.47;;;0.00;99.90;;;;;;5021657;28;20220;-73
2023/01/29 01:56:15;;;;;;;5.60;5.10;;;0.10;99.90;;;;;;5019817;28;20193;-73
2023/01/29 01:58:45;;;;;;;5.87;5.37;;;0.10;99.90;;;;;;5011530;28;20188;-73
2023/01/29 02:01:11;;;;;;;6.87;4.97;;;0.20;99.90;;;;;;5018285;28;20686;-73
2023/01/29 02:09:32;;;;;;;5.55;5.15;;;-0.10;99.90;;;;;;5016452;28;20631;-73
2023/01/29 02:11:58;;;;;;;4.87;4.47;;;0.00;99.90;;;;;;5020430;28;20237;-73
2023/01/29 02:14:24;;;;;;;5.68;4.95;;;0.10;99.90;;;;;;5015912;28;20734;-72
2023/01/29 02:16:50;;;;;;;5.13;4.63;;;0.20;99.90;;;;;;5018807;28;20180;-72
2023/01/29 02:19:29;;;;;;;7.15;4.93;;;0.30;99.90;;;;;;5023960;28;20180;-72
2023/01/29 02:22:27;;;;;;;5.78;5.20;;;0.30;99.90;;;;;;5021510;28;20200;-71
2023/01/29 02:24:52;;;;;;;5.10;4.70;;;0.20;99.90;;;;;;5011614;28;20205;-72
2023/01/29 02:27:34;;;;;;;5.80;5.30;;;0.30;99.90;;;;;;5017021;28;20179;-72
2023/01/29 02:30:12;;;;;;;5.70;5.18;;;0.30;99.90;;;;;;5018261;28;20598;-72
2023/01/29 02:32:57;;;;;;;6.13;5.23;;;0.30;99.90;;;;;;5008325;28;20838;-71
2023/01/29 02:35:28;;;;;;;6.30;5.55;;;0.30;99.90;;;;;;5011757;28;20211;-72
2023/01/29 02:38:16;;;;;;;5.80;5.30;;;0.30;99.90;;;;;;5017038;28;20188;-72
2023/01/29 02:40:49;;;;;;;5.03;4.63;;;0.30;99.90;;;;;;5010775;28;20616;-73
2023/01/29 02:43:18;;;;;;;6.30;5.70;;;0.30;99.90;;;;;;5007488;28;20234;-73
2023/01/29 02:46:14;;;;;;;5.57;5.10;;;0.20;99.90;;;;;;5010256;28;21830;-72
2023/01/29 02:48:52;;;;;;;5.73;5.20;;;0.20;99.90;;;;;;5013201;28;20195;-72
2023/01/29 02:51:35;;;;;;;5.43;5.03;;;0.10;99.90;;;;;;5009714;28;20184;-71
2023/01/29 02:54:11;;;;;;;5.27;4.87;;;0.00;99.90;;;;;;5020000;28;20208;-73
2023/01/29 02:56:50;;;;;;;6.07;5.47;;;0.00;99.90;;;;;;5014637;28;20196;-74
2023/01/29 02:59:29;;;;;;;5.30;4.90;;;-0.10;99.90;;;;;;5005827;28;20207;-73
2023/01/29 03:02:03;;;;;;;4.97;4.57;;;-0.10;99.90;;;;;;5023094;28;20196;-74
2023/01/29 03:04:35;;;;;;;5.30;4.93;;;0.00;99.90;;;;;;5013865;28;20644;-72
2023/01/29 03:07:06;;;;;;;5.25;4.85;;;0.00;99.90;;;;;;5018893;28;20194;-72
2023/01/29 03:09:33;;;;;;;5.93;5.40;;;0.10;99.90;;;;;;5021530;28;20184;-74
2023/01/29 03:12:17;;;;;;;5.10;4.70;;;0.10;99.90;;;;;;5013610;28;20212;-71
2023/01/29 03:17:39;;;;;;;5.65;5.18;;;0.00;99.90;;;;;;5018196;28;20181;-71
2023/01/29 03:20:09;;;;;;;5.87;5.23;;;0.00;99.90;;;;;;5017056;28;20180;-71
2023/01/29 03:22:37;;;;;;;5.22;4.75;;;0.10;99.90;;;;;;5024824;28;20168;-71
2023/01/29 03:34:03;;;;;;;6.55;5.25;;;0.20;99.90;;;;;;5010405;28;20259;-73
2023/01/29 03:36:36;;;;;;;5.15;4.75;;;0.30;99.90;;;;;;5017439;28;20560;-73
2023/01/29 03:39:07;;;;;;;5.18;4.68;;;0.20;99.90;;;;;;5010864;28;20181;-74
2023/01/29 03:41:41;;;;;;;7.67;5.77;;;0.30;99.90;;;;;;5011254;28;20188;-73
2023/01/29 03:44:10;;;;;;;6.37;5.57;;;0.40;99.90;;;;;;5006305;28;20237;-72
2023/01/29 03:46:45;;;;;;;5.70;5.20;;;0.30;99.90;;;;;;5008712;28;20180;-72
2023/01/29 03:49:29;;;;;;;4.87;4.50;;;0.20;99.90;;;;;;5002451;28;20246;-72
2023/01/29 03:52:03;;;;;;;5.60;5.10;;;0.10;99.90;;;;;;5013065;28;20595;-73
2023/01/29 03:54:48;;;;;;;5.95;5.45;;;0.00;99.90;;;;;;5013509;28;20196;-73
2023/01/29 03:57:28;;;;;;;5.80;5.30;;;0.10;99.90;;;;;;5023519;28;20622;-72
2023/01/29 04:00:09;;;;;;;5.27;4.83;;;0.10;99.90;;;;;;5016478;28;20192;-71
2023/01/29 04:03:04;;;;;;;5.57;5.07;;;0.10;99.90;;;;;;5010663;28;20557;-73
2023/01/29 04:05:38;;;;;;;5.45;5.05;;;0.30;99.90;;;;;;5007674;28;20256;-72
2023/01/29 04:08:11;;;;;;;5.18;4.78;;;0.30;99.90;;;;;;5016143;28;20185;-73
2023/01/29 04:10:39;;;;;;;5.38;4.90;;;0.30;99.90;;;;;;5014722;28;20738;-73
2023/01/29 04:13:09;;;;;;;5.30;4.90;;;0.30;99.90;;;;;;5017185;28;20695;-73
2023/01/29 04:15:44;;;;;;;5.33;4.83;;;0.40;99.90;;;;;;5018555;28;20197;-74
2023/01/29 04:18:10;;;;;;;5.00;4.50;;;0.30;99.90;;;;;;5011329;28;20185;-74
2023/01/29 04:20:36;;;;;;;5.50;5.10;;;0.20;99.90;;;;;;5011428;28;20181;-74
2023/01/29 04:23:05;;;;;;;5.90;5.40;;;0.20;99.90;;;;;;5013148;28;20200;-74
2023/01/29 04:25:41;;;;;;;4.43;4.13;;;0.20;99.90;;;;;;5009749;28;20208;-74
2023/01/29 04:28:23;;;;;;;5.63;4.80;;;0.10;99.90;;;;;;5014524;28;20273;-73
2023/01/29 04:31:01;;;;;;;5.00;4.20;;;0.10;99.90;;;;;;5013432;28;20185;-74
2023/01/29 04:33:45;;;;;;;5.07;4.67;;;0.10;99.90;;;;;;5011874;28;20219;-74
2023/01/29 04:36:37;;;;;;;4.67;4.37;;;-0.10;99.90;;;;;;5011356;28;20191;-74
2023/01/29 04:39:22;;;;;;;5.17;4.77;;;-0.10;99.90;;;;;;5011430;28;20177;-74
2023/01/29 04:41:57;;;;;;;4.93;4.63;;;-0.10;99.90;;;;;;5012301;28;20653;-73
2023/01/29 04:44:38;;;;;;;5.40;4.90;;;-0.20;99.90;;;;;;5013162;28;20215;-74
2023/01/29 04:47:09;;;;;;;5.00;4.60;;;-0.20;99.90;;;;;;5011001;28;20208;-73
2023/01/29 04:49:45;;;;;;;4.63;4.33;;;-0.10;99.90;;;;;;5012999;28;20551;-74
2023/01/29 04:52:22;;;;;;;5.00;4.60;;;-0.10;99.90;;;;;;5009072;28;20212;-74
2023/01/29 04:55:01;;;;;;;5.10;4.70;;;-0.10;99.90;;;;;;5013093;28;20590;-74
2023/01/29 04:57:45;;;;;;;5.20;4.70;;;-0.10;99.90;;;;;;5002654;28;20178;-74
2023/01/29 05:00:19;;;;;;;4.80;4.50;;;-0.10;99.90;;;;;;5020779;28;20204;-73
2023/01/29 05:02:46;;;;;;;5.20;4.80;;;-0.10;99.90;;;;;;5013365;28;20212;-73
2023/01/29 05:05:13;;;;;;;4.33;3.97;;;0.00;99.90;;;;;;5006925;28;20248;-72
2023/01/29 05:07:41;;;;;;;4.20;3.90;;;0.10;99.90;;;;;;5012782;28;20265;-73
2023/01/29 05:10:09;;;;;;;3.90;3.60;;;0.30;99.90;;;;;;5018790;28;20180;-73
2023/01/29 05:12:37;;;;;;;3.97;3.67;;;0.20;99.90;;;;;;5019586;28;20284;-73
2023/01/29 05:15:07;;;;;;;4.13;3.83;;;0.30;99.90;;;;;;5009327;28;20240;-74
2023/01/29 05:17:33;;;;;;;4.40;4.00;;;0.20;99.90;;;;;;5012788;28;20177;-74
2023/01/29 05:19:59;;;;;;;4.57;4.23;;;0.10;99.90;;;;;;5020836;28;20200;-74
2023/01/29 05:22:25;;;;;;;3.20;3.00;;;0.00;99.90;;;;;;5024131;28;20184;-74
2023/01/29 05:24:51;;;;;;;3.40;3.10;;;0.20;99.90;;;;;;5013026;28;20209;-74
2023/01/29 05:30:15;;;;;;;2.77;2.67;;;0.30;99.90;;;;;;5022340;28;20192;-71
2023/01/29 05:32:40;;;;;;;2.80;2.70;;;0.40;99.90;;;;;;5018883;28;20749;-72
2023/01/29 05:35:06;;;;;;;1.30;1.20;;;0.40;99.90;;;;;;5017773;28;20192;-72
2023/01/29 05:37:32;;;;;;;3.00;2.80;;;0.40;99.90;;;;;;5014506;28;20184;-72
2023/01/29 05:39:57;;;;;;;2.50;2.40;;;0.30;99.90;;;;;;5015045;28;20182;-74
2023/01/29 05:42:23;;;;;;;2.40;2.30;;;0.30;99.90;;;;;;5016817;28;20184;-72
2023/01/29 05:44:49;;;;;;;2.60;2.50;;;0.30;99.90;;;;;;5016014;28;20205;-72
2023/01/29 05:47:18;;;;;;;2.33;2.23;;;0.40;99.90;;;;;;5015657;28;20231;-72
2023/01/29 05:49:44;;;;;;;3.20;3.00;;;0.30;99.90;;;;;;5022066;28;20282;-72
2023/01/29 05:52:09;;;;;;;3.60;3.40;;;0.20;99.90;;;;;;5019150;28;20672;-72
2023/01/29 05:54:35;;;;;;;3.03;2.90;;;0.00;99.90;;;;;;5018207;28;20189;-72
2023/01/29 05:57:01;;;;;;;3.57;3.37;;;-0.20;99.90;;;;;;5021474;28;20239;-74
2023/01/29 05:59:26;;;;;;;4.60;3.90;;;-0.30;99.90;;;;;;5023041;28;20547;-74
2023/01/29 06:01:52;;;;;;;3.83;3.53;;;-0.40;99.90;;;;;;5006774;28;20182;-74
2023/01/29 06:04:17;;;;;;;5.37;3.97;;;-0.50;99.90;;;;;;5007249;28;20466;-73
2023/01/29 06:06:43;;;;;;;3.90;3.70;;;-0.50;99.90;;;;;;5014663;28;20181;-74
2023/01/29 06:09:10;;;;;;;5.40;3.83;;;-0.40;99.90;;;;;;5015749;28;20208;-73
2023/01/29 06:11:36;;;;;;;3.30;3.10;;;-0.50;99.90;;;;;;5014460;28;20185;-72
2023/01/29 06:14:01;;;;;;;4.20;3.90;;;-0.50;99.90;;;;;;5020858;28;20197;-74
2023/01/29 06:16:27;;;;;;;3.80;3.60;;;-0.50;99.90;;;;;;5018434;28;20180;-74
2023/01/29 06:18:52;;;;;;;3.60;3.37;;;-0.50;99.90;;;;;;5016427;28;20180;-74
2023/01/29 06:21:18;;;;;;;4.03;3.73;;;-0.50;99.90;;;;;;5015401;28;20189;-74
2023/01/29 06:23:44;;;;;;;3.67;3.37;;;-0.50;99.90;;;;;;5004452;28;20592;-74
2023/01/29 06:26:12;;;;;;;4.20;3.80;;;-0.50;99.90;;;;;;5007329;28;20185;-74
2023/01/29 06:28:38;;;;;;;4.10;3.80;;;-0.50;99.90;;;;;;5012149;28;20280;-74
2023/01/29 06:31:05;;;;;;;4.00;3.60;;;-0.60;99.90;;;;;;5015425;28;20745;-74
2023/01/29 06:33:31;;;;;;;4.00;3.70;;;-0.50;99.90;;;;;;5001904;28;20697;-73
2023/01/29 06:36:02;;;;;;;4.23;3.93;;;-0.50;99.90;;;;;;5015820;28;20212;-74
2023/01/29 06:38:29;;;;;;;4.17;3.67;;;-0.60;99.90;;;;;;5016672;28;20204;-74
2023/01/29 06:40:55;;;;;;;3.87;3.57;;;-0.50;99.90;;;;;;5016215;28;20173;-74
2023/01/29 06:43:22;;;;;;;3.83;3.60;;;-0.10;99.90;;;;;;5012036;28;20200;-75
2023/01/29 06:45:55;;;;;;;4.37;4.07;;;-0.20;99.90;;;;;;5001390;28;20202;-75
2023/01/29 06:48:22;;;;;;;4.60;4.30;;;-0.30;99.90;;;;;;5009259;28;20261;-75
2023/01/29 06:50:48;;;;;;;4.43;4.00;;;-0.40;99.90;;;;;;5003983;28;20516;-74
2023/01/29 06:53:15;;;;;;;4.07;3.77;;;-0.40;99.90;;;;;;5019459;28;20214;-74
2023/01/29 06:55:41;;;;;;;4.90;4.50;;;-0.40;99.90;;;;;;5017346;28;20209;-75
2023/01/29 06:58:09;;;;;;;4.07;3.77;;;-0.50;99.90;;;;;;5012253;28;20239;-76
2023/01/29 07:00:35;;;;;;;4.27;3.97;;;-0.50;99.90;;;;;;5012623;28;20181;-74
2023/01/29 07:03:01;;;;;;;4.03;3.73;;;-0.50;99.90;;;;;;5006515;28;20193;-75
2023/01/29 07:05:27;;;;;;;4.57;4.27;;;-0.40;99.90;;;;;;5000950;28;20264;-74
2023/01/29 07:07:53;;;;;;;4.13;3.83;;;-0.50;99.90;;;;;;5017360;28;20632;-73
2023/01/29 07:10:18;;;;;;;3.53;3.33;;;-0.50;99.90;;;;;;5022381;28;20207;-73
2023/01/29 07:12:44;;;;;;;4.60;4.27;;;-0.30;99.90;;;;;;5022103;28;20208;-76
2023/01/29 07:15:11;;;;;;;4.90;4.50;;;-0.30;99.90;;;;;;5012740;28;20642;-72
2023/01/29 07:17:37;;;;;;;4.43;4.03;;;-0.20;99.90;;;;;;5018749;28;20701;-72
2023/01/29 07:20:04;;;;;;;4.97;4.57;;;-0.20;99.90;;;;;;5013344;28;20188;-72
2023/01/29 07:22:31;;;;;;;4.70;4.30;;;-0.20;99.90;;;;;;5013164;28;20177;-72
2023/01/29 07:24:56;;;;;;;4.70;4.40;;;-0.30;99.90;;;;;;5019482;28;20204;-72
2023/01/29 07:27:22;;;;;;;4.70;4.30;;;-0.30;99.90;;;;;;5018108;28;20268;-72
2023/01/29 07:29:47;;;;;;;4.73;4.33;;;-0.30;99.90;;;;;;5019765;28;20192;-71
2023/01/29 07:32:13;;;;;;;5.17;4.67;;;-0.20;99.90;;;;;;5014247;28;20221;-72
2023/01/29 07:34:40;;;;;;;5.63;5.20;;;-0.20;99.90;;;;;;5019359;28;20236;-72
2023/01/29 07:37:05;;;;;;;4.73;4.43;;;-0.30;99.90;;;;;;5018412;28;20737;-72
2023/01/29 07:39:31;;;;;;;5.40;5.00;;;-0.30;99.90;;;;;;5017139;28;20197;-71
2023/01/29 07:41:57;;;;;;;4.30;4.03;;;-0.20;99.90;;;;;;5018132;28;20201;-72
2023/01/29 07:44:22;;;;;;;5.07;4.67;;;-0.20;99.90;;;;;;5018727;28;20208;-74
2023/01/29 07:46:48;;;;;;;5.60;5.10;;;-0.20;99.90;;;;;;5018607;28;20236;-75
2023/01/29 07:49:14;;;;;;;5.13;4.73;;;-0.20;99.90;;;;;;5011935;28;20234;-71
2023/01/29 07:51:40;;;;;;;5.70;5.30;;;-0.20;99.90;;;;;;5015057;28;20185;-73
2023/01/29 07:54:06;;;;;;;5.53;4.97;;;-0.10;99.90;;;;;;5014284;28;20200;-72
2023/01/29 07:56:31;;;;;;;5.40;5.00;;;0.00;99.90;;;;;;5021780;28;20192;-74
2023/01/29 07:58:57;;;;;;;5.13;4.73;;;0.00;99.90;;;;;;5009445;28;20197;-71
2023/01/29 08:01:23;;;;;;;5.00;4.67;;;0.00;99.90;;;;;;5016278;28;20640;-71
2023/01/29 08:03:48;;;;;;;5.60;5.20;;;0.10;99.90;;;;;;5012982;28;20585;-71
2023/01/29 08:06:14;;;;;;;7.10;5.60;;;0.00;99.90;;;;;;5016556;28;20185;-71
2023/01/29 08:08:39;;;;;;;5.70;4.87;;;-0.10;99.90;;;;;;5009213;28;20602;-71
2023/01/29 08:11:05;;;;;;;6.93;5.30;;;0.00;99.90;;;;;;5013706;28;20311;-71
2023/01/29 08:13:31;;;;;;;5.63;5.13;;;0.10;99.90;;;;;;5013326;28;20201;-71
2023/01/29 08:16:01;;;;;;;5.80;5.40;;;0.00;99.90;;;;;;5012813;28;20552;-71
2023/01/29 08:18:27;;;;;;;5.20;4.70;;;0.00;99.90;;;;;;5023428;28;20639;-71
2023/01/29 08:20:57;;;;;;;5.43;5.00;;;0.00;99.90;;;;;;5011782;28;20189;-71
2023/01/29 08:23:22;;;;;;;5.30;4.80;;;0.00;99.90;;;;;;5014890;28;20232;-71
2023/01/29 08:25:48;;;;;;;5.47;4.97;;;0.10;99.90;;;;;;5014808;28;20742;-71
2023/01/29 08:28:14;;;;;;;5.13;4.73;;;0.20;99.90;;;;;;5009074;28;20546;-70
2023/01/29 08:30:39;;;;;;;5.40;4.90;;;0.30;99.90;;;;;;5020824;28;20563;-71
2023/01/29 08:33:05;;;;;;;5.30;4.90;;;0.40;99.90;;;;;;5013605;28;20224;-71
2023/01/29 08:35:31;;;;;;;7.93;4.33;;;0.50;99.90;;;;;;5021289;28;20208;-71
2023/01/29 08:37:59;;;;;;;7.40;5.47;;;0.60;99.90;;;;;;5017855;28;20656;-71
2023/01/29 08:40:30;;;;;;;5.83;5.33;;;0.50;99.90;;;;;;5012139;28;20186;-71
2023/01/29 08:43:04;;;;;;;5.40;4.90;;;0.50;99.90;;;;;;5018380;28;20181;-71
2023/01/29 08:45:34;;;;;;;6.27;5.67;;;0.50;99.90;;;;;;5022508;28;20199;-71
2023/01/29 08:47:59;;;;;;;9.07;6.17;;;0.60;99.90;;;;;;5016911;28;20689;-71
2023/01/29 08:50:25;;;;;;;5.97;5.47;;;0.70;99.90;;;;;;5023640;28;20220;-71
2023/01/29 08:52:50;;;;;;;5.97;5.47;;;0.80;99.90;;;;;;5020249;28;20672;-71
2023/01/29 08:55:16;;;;;;;6.00;5.60;;;0.80;99.90;;;;;;5005729;28;20681;-71
2023/01/29 08:57:42;;;;;;;5.63;5.13;;;0.90;99.90;;;;;;5012598;28;20186;-71
2023/01/29 09:00:10;;;;;;;5.20;4.80;;;1.00;99.90;;;;;;5018079;28;20184;-71
2023/01/29 09:02:36;;;;;;;6.70;5.20;;;1.00;99.90;;;;;;5020969;28;20224;-71
2023/01/29 09:05:01;;;;;;;3.83;3.60;;;1.10;99.90;;;;;;5022916;28;20288;-71
2023/01/29 09:07:28;;;;;;;5.60;5.10;;;1.20;99.90;;;;;;5022692;28;20695;-71
2023/01/29 09:09:54;;;;;;;6.23;5.57;;;1.10;99.90;;;;;;5022869;28;20300;-71
2023/01/29 09:12:20;;;;;;;5.53;5.03;;;1.00;99.90;;;;;;5022958;28;20283;-71
2023/01/29 09:14:45;;;;;;;5.78;5.28;;;1.10;99.90;;;;;;5018892;28;20209;-71
2023/01/29 09:17:11;;;;;;;5.50;5.10;;;1.10;99.90;;;;;;5018169;28;20181;-71
2023/01/29 09:19:36;;;;;;;5.10;4.70;;;1.10;99.90;;;;;;5020370;28;20184;-71
2023/01/29 09:22:02;;;;;;;5.95;5.45;;;1.00;99.90;;;;;;5015024;28;20199;-71
2023/01/29 09:24:28;;;;;;;6.23;5.63;;;1.10;99.90;;;;;;5015567;28;20259;-71
2023/01/29 09:26:54;;;;;;;5.70;5.20;;;1.00;99.90;;;;;;5018144;28;20182;-71
2023/01/29 09:29:19;;;;;;;6.47;5.50;;;0.80;99.90;;;;;;5018294;28;20177;-71
2023/01/29 09:31:45;;;;;;;6.03;5.53;;;0.80;99.90;;;;;;5022337;28;20297;-71
2023/01/29 09:34:11;;;;;;;6.63;6.03;;;0.70;99.90;;;;;;5021241;28;20215;-71
2023/01/29 09:36:36;;;;;;;6.40;5.80;;;0.90;99.90;;;;;;5021883;28;20176;-70
2023/01/29 09:39:02;;;;;;;6.68;6.18;;;1.10;99.90;;;;;;5020271;28;20185;-71
2023/01/29 09:42:07;;;;;;;6.38;5.85;;;1.20;99.90;;;;;;5020963;28;20259;-71
2023/01/29 09:44:54;;;;;;;6.38;5.82;;;1.20;99.90;;;;;;5018525;28;20204;-71
2023/01/29 09:47:23;;;;;;;5.95;5.50;;;1.40;99.90;;;;;;5015826;28;20248;-71
2023/01/29 09:49:56;;;;;;;6.07;5.07;;;1.60;99.90;;;;;;5022505;28;20180;-71
2023/01/29 09:52:26;;;;;;;5.40;5.00;;;1.70;99.90;;;;;;5024669;28;20193;-71
2023/01/29 09:55:17;;;;;;;5.25;4.80;;;1.80;99.90;;;;;;5018616;28;20196;-70
2023/01/29 09:57:57;;;;;;;5.93;5.53;;;2.00;99.90;;;;;;5023608;28;20279;-71
2023/01/29 10:00:32;;;;;;;6.28;5.78;;;1.90;99.90;;;;;;5016974;28;20170;-71
2023/01/29 10:03:22;;;;;;;5.68;5.28;;;2.00;99.90;;;;;;5007985;28;20268;-71
2023/01/29 10:06:06;;;;;;;6.50;6.00;;;2.10;99.90;;;;;;5024619;28;20547;-71
2023/01/29 10:08:46;;;;;;;7.32;6.53;;;2.30;99.90;;;;;;5018846;28;20181;-71
2023/01/29 10:11:37;;;;;;;5.18;4.78;;;2.60;99.90;;;;;;5016065;28;20188;-71
2023/01/29 10:14:36;;;;;;;6.20;5.70;;;3.00;99.90;;;;;;5014403;28;20236;-71
2023/01/29 10:17:30;;;;;;;5.93;5.45;;;3.20;99.90;;;;;;5021835;28;20173;-71
2023/01/29 10:20:22;;;;;;;6.20;5.53;;;3.10;99.90;;;;;;5019733;28;20197;-71
2023/01/29 10:23:25;;;;;;;5.95;5.45;;;3.20;99.90;;;;;;5010538;28;20186;-71
2023/01/29 10:25:52;;;;;;;6.15;5.55;;;3.40;99.90;;;;;;5016000;28;20227;-71
2023/01/29 10:28:45;;;;;;;6.43;5.93;;;3.70;99.90;;;;;;5026582;28;20606;-71
2023/01/29 10:31:31;;;;;;;6.53;5.93;;;3.70;99.90;;;;;;5018206;28;20283;-72
2023/01/29 10:34:02;;;;;;;6.20;5.70;;;3.70;99.90;;;;;;5021491;28;20613;-71
2023/01/29 10:36:36;;;;;;;6.28;5.72;;;3.50;99.90;;;;;;5015763;28;20181;-71
2023/01/29 10:39:02;;;;;;;6.30;5.70;;;3.30;99.90;;;;;;5008681;28;20177;-71
2023/01/29 10:41:45;;;;;;;6.32;5.82;;;3.30;99.90;;;;;;5017206;28;20200;-72
2023/01/29 10:44:22;;;;;;;7.32;6.63;;;3.40;99.90;;;;;;5014643;28;20730;-71
2023/01/29 10:47:16;;;;;;;5.85;5.35;;;3.30;99.90;;;;;;5017688;28;20381;-71
2023/01/29 10:49:54;;;;;;;6.57;6.18;;;3.30;99.90;;;;;;5010753;28;20678;-71
2023/01/29 10:52:42;;;;;;;5.78;5.28;;;3.20;99.90;;;;;;5009976;28;20200;-71
2023/01/29 10:55:21;;;;;;;6.50;5.90;;;3.40;99.90;;;;;;5020281;28;20204;-72
2023/01/29 10:57:47;;;;;;;5.80;5.30;;;3.50;99.90;;;;;;5022605;28;20272;-71
2023/01/29 11:00:27;;;;;;;6.10;5.50;;;3.20;99.90;;;;;;5015360;28;20248;-71
2023/01/29 11:02:52;;;;;;;6.85;6.15;;;3.20;99.90;;;;;;5018776;28;20743;-71
2023/01/29 11:05:32;;;;;;;6.60;6.00;;;3.30;99.90;;;;;;5012439;28;20284;-71
2023/01/29 11:08:08;;;;;;;6.57;5.97;;;3.60;99.90;;;;;;5022376;28;20185;-71
2023/01/29 11:10:40;;;;;;;6.70;6.10;;;4.00;99.90;;;;;;5016166;28;20176;-71
2023/01/29 11:13:10;;;;;;;7.05;6.45;;;4.10;99.90;;;;;;5019668;28;20921;-71
2023/01/29 11:15:35;;;;;;;6.03;5.53;;;5.00;99.90;;;;;;5022269;28;20193;-71
2023/01/29 11:18:12;;;;;;;5.93;5.45;;;6.10;99.30;;;;;;5022148;28;20184;-71
2023/01/29 11:20:38;;;;;;;5.50;5.10;;;6.50;97.60;;;;;;5018315;28;20212;-72
2023/01/29 11:23:04;;;;;;;8.27;5.45;;;6.40;98.10;;;;;;5017272;28;20185;-71
2023/01/29 11:25:31;;;;;;;5.97;5.47;;;6.50;97.40;;;;;;5016665;28;20616;-71
2023/01/29 11:28:01;;;;;;;6.10;5.60;;;6.80;95.20;;;;;;5009628;28;20189;-71
2023/01/29 11:30:32;;;;;;;5.70;5.20;;;6.70;94.70;;;;;;5013851;28;20178;-71
2023/01/29 11:33:04;;;;;;;5.22;4.88;;;6.10;95.50;;;;;;5016010;28;20212;-72
2023/01/29 11:35:32;;;;;;;5.68;4.85;;;5.70;96.00;;;;;;5019520;28;21209;-71
2023/01/29 11:38:17;;;;;;;5.13;4.78;;;5.60;96.00;;;;;;5014573;28;20181;-71
2023/01/29 11:40:43;;;;;;;5.85;5.45;;;5.50;95.60;;;;;;5019404;28;20718;-71
2023/01/29 11:43:17;;;;;;;6.30;5.80;;;5.00;96.50;;;;;;5022662;28;20299;-71
2023/01/29 11:45:43;;;;;;;6.68;5.68;;;4.40;97.50;;;;;;5015659;28;20205;-72
2023/01/29 11:48:53;;;;;;;6.68;6.03;;;4.10;98.60;;;;;;5024171;28;20234;-71
2023/01/29 11:51:27;;;;;;;5.85;5.35;;;3.80;99.70;;;;;;5010003;28;20251;-71
2023/01/29 11:54:01;;;;;;;6.40;5.90;;;3.80;98.80;;;;;;5005576;28;20202;-71
2023/01/29 11:56:40;;;;;;;6.15;5.65;;;3.40;99.60;;;;;;5021605;28;20188;-70
2023/01/29 11:59:19;;;;;;;3.88;3.47;;;3.50;99.50;;;;;;5015016;28;20204;-70
2023/01/29 12:01:46;;;;;;;6.30;5.75;;;3.70;98.80;;;;;;5012545;28;20181;-71
2023/01/29 12:04:31;;;;;;;5.93;5.53;;;3.70;99.30;;;;;;5021347;28;20227;-71
2023/01/29 12:06:57;;;;;;;7.00;6.30;;;3.60;99.70;;;;;;5019887;28;20224;-71
2023/01/29 12:09:27;;;;;;;5.97;5.47;;;3.90;99.00;;;;;;5023535;28;20180;-70
2023/01/29 12:11:52;;;;;;;4.97;4.47;;;4.10;98.20;;;;;;5026899;28;20178;-71
2023/01/29 12:14:32;;;;;;;6.30;5.50;;;4.50;97.90;;;;;;5026096;28;20251;-71
2023/01/29 12:17:06;;;;;;;6.55;6.05;;;4.80;96.90;;;;;;5013971;28;20649;-71
2023/01/29 12:19:46;;;;;;;5.90;5.40;;;4.90;96.90;;;;;;5013468;28;20213;-71
2023/01/29 12:22:19;;;;;;;6.35;5.85;;;5.10;97.00;;;;;;5016485;28;20648;-71
2023/01/29 12:24:44;;;;;;;6.28;5.78;;;5.20;96.90;;;;;;5016295;28;20563;-72
2023/01/29 12:27:28;;;;;;;5.85;5.35;;;5.40;96.80;;;;;;5026439;28;20181;-72
2023/01/29 12:30:11;;;;;;;5.90;5.40;;;5.30;96.30;;;;;;5021251;28;20193;-71
2023/01/29 12:32:55;;;;;;;5.97;5.57;;;5.30;95.20;;;;;;5022371;28;20594;-71
2023/01/29 12:35:34;;;;;;;5.55;5.15;;;5.20;95.70;;;;;;5014008;28;20281;-71
2023/01/29 12:38:18;;;;;;;5.00;4.60;;;5.30;95.30;;;;;;5018731;28;20189;-71
2023/01/29 12:40:54;;;;;;;6.00;5.50;;;5.50;94.60;;;;;;5016824;28;20184;-71
2023/01/29 12:43:37;;;;;;;8.27;5.05;;;5.10;95.20;;;;;;5014158;28;20181;-71
2023/01/29 12:46:07;;;;;;;6.10;5.60;;;4.90;95.20;;;;;;5025165;28;20188;-71
2023/01/29 12:48:36;;;;;;;6.38;5.88;;;4.70;95.50;;;;;;5017486;28;20557;-72
2023/01/29 12:51:18;;;;;;;7.68;5.85;;;4.40;96.70;;;;;;5023531;28;20185;-72
2023/01/29 12:53:49;;;;;;;6.28;5.78;;;4.40;97.00;;;;;;5021578;28;20205;-72
2023/01/29 12:56:41;;;;;;;5.63;5.13;;;4.50;96.60;;;;;;5014050;28;20222;-71
2023/01/29 12:59:35;;;;;;;6.43;5.82;;;4.50;96.10;;;;;;5020549;28;20216;-71
2023/01/29 13:02:17;;;;;;;6.22;5.70;;;4.60;96.00;;;;;;5019296;28;20243;-72
2023/01/29 13:04:54;;;;;;;7.07;6.50;;;4.50;96.70;;;;;;5022720;28;20205;-72
2023/01/29 13:07:46;;;;;;;6.57;6.00;;;4.40;97.30;;;;;;5017056;28;20196;-72
2023/01/29 13:10:16;;;;;;;6.32;5.82;;;4.40;97.90;;;;;;5019397;28;20173;-71
2023/01/29 13:13:01;;;;;;;7.07;6.45;;;4.70;96.30;;;;;;5021022;28;20613;-71
2023/01/29 13:15:46;;;;;;;6.78;6.10;;;4.80;95.60;;;;;;5016390;28;20197;-71
2023/01/29 13:18:40;;;;;;;6.50;5.90;;;4.40;97.10;;;;;;5012047;28;20215;-72
2023/01/29 13:21:11;;;;;;;6.35;5.85;;;4.10;97.40;;;;;;5022791;28;20267;-71
2023/01/29 13:23:41;;;;;;;7.47;6.78;;;4.00;97.60;;;;;;5021528;28;20231;-72
2023/01/29 13:26:07;;;;;;;6.95;6.28;;;3.80;97.90;;;;;;5017629;28;20393;-72
2023/01/29 13:28:32;;;;;;;7.38;5.22;;;3.90;98.30;;;;;;5019647;28;20189;-72
2023/01/29 13:31:22;;;;;;;6.18;5.57;;;4.30;98.20;;;;;;5016964;28;20199;-72
2023/01/29 13:34:15;;;;;;;5.72;5.30;;;4.90;96.30;;;;;;5013461;28;20655;-71
2023/01/29 13:36:49;;;;;;;6.45;5.95;;;5.00;95.60;;;;;;5007012;28;20181;-71
2023/01/29 13:39:21;;;;;;;6.13;5.63;;;5.00;95.80;;;;;;5018928;28;20268;-71
2023/01/29 13:41:48;;;;;;;5.82;5.43;;;5.00;95.40;;;;;;5020882;28;20656;-72
2023/01/29 13:44:36;;;;;;;6.30;5.80;;;4.80;95.50;;;;;;5019932;28;20310;-71
2023/01/29 13:47:07;;;;;;;5.95;5.55;;;4.30;96.80;;;;;;5018465;28;20283;-71
2023/01/29 13:49:51;;;;;;;6.15;5.55;;;4.20;96.60;;;;;;5022876;28;20311;-72